Time;durP1;ratioP1;P1;durP2;ratioP2;P2;SDS_P1;SDS_P2;PMS_P1;PMS_P2;Temp;Humidity;BMP_temperature;BMP_pressure;BME280_temperature;BME280_humidity;BME280_pressure;Samples;Min_cycle;Max_cycle;Signal;HPM_P1;HPM_P2
2023/03/16 00:00:20;;;;;;;8.90;8.60;;;;;;;2.30;100.00;91862.38;5069330;28;20218;-75
2023/03/16 00:02:45;;;;;;;8.67;8.30;;;;;;;2.52;100.00;91888.03;5070274;28;20189;-74
2023/03/16 00:05:12;;;;;;;8.73;8.40;;;;;;;2.49;100.00;91889.28;5071321;28;20241;-75
2023/03/16 00:07:38;;;;;;;8.30;8.03;;;;;;;2.34;100.00;91873.72;5069384;28;20193;-74
2023/03/16 00:10:05;;;;;;;7.90;7.63;;;;;;;2.41;100.00;91894.13;5070228;28;20229;-74
2023/03/16 00:12:33;;;;;;;8.03;7.73;;;;;;;2.29;100.00;91886.56;5070726;28;20190;-74
2023/03/16 00:14:59;;;;;;;9.07;8.63;;;;;;;2.33;100.00;91897.16;5070571;28;20244;-75
2023/03/16 00:17:25;;;;;;;8.53;8.23;;;;;;;2.22;100.00;91890.38;5070621;28;20202;-75
2023/03/16 00:19:53;;;;;;;8.80;8.40;;;;;;;2.22;100.00;91895.53;5069793;28;20267;-74
2023/03/16 00:22:21;;;;;;;8.23;8.03;;;;;;;2.13;100.00;91915.00;5070577;28;20245;-74
2023/03/16 00:24:47;;;;;;;8.20;7.90;;;;;;;2.21;100.00;91914.56;5070408;28;20257;-74
2023/03/16 00:27:14;;;;;;;8.03;7.73;;;;;;;2.35;100.00;91910.56;5070055;28;20182;-74
2023/03/16 00:29:54;;;;;;;8.93;8.53;;;;;;;2.32;100.00;91909.25;5070127;28;20247;-75
2023/03/16 00:32:23;;;;;;;8.67;8.37;;;;;;;2.08;100.00;91899.53;5070445;28;20170;-74
2023/03/16 00:34:48;;;;;;;8.83;8.53;;;;;;;2.00;100.00;91876.78;5068853;28;20267;-74
2023/03/16 00:37:16;;;;;;;8.57;8.27;;;;;;;2.16;100.00;91906.81;5070224;28;20200;-74
2023/03/16 00:39:43;;;;;;;7.63;7.33;;;;;;;1.72;100.00;91874.47;5068621;28;20282;-75
2023/03/16 00:42:10;;;;;;;7.97;7.70;;;;;;;1.79;100.00;91911.84;5070196;28;20188;-75
2023/03/16 00:44:36;;;;;;;8.27;7.97;;;;;;;1.67;100.00;91913.03;5069178;28;20251;-75
2023/03/16 00:47:08;;;;;;;8.50;8.20;;;;;;;1.73;100.00;91912.06;5069735;28;20192;-75
2023/03/16 00:49:35;;;;;;;9.53;9.13;;;;;;;1.80;100.00;91917.78;5068786;28;20220;-74
2023/03/16 00:52:01;;;;;;;8.43;8.13;;;;;;;1.70;100.00;91909.97;5070034;28;21611;-74
2023/03/16 00:54:28;;;;;;;8.50;8.20;;;;;;;1.84;100.00;91906.00;5069255;28;20239;-74
2023/03/16 00:56:53;;;;;;;9.47;9.00;;;;;;;1.89;100.00;91908.59;5069591;28;20201;-74
2023/03/16 00:59:20;;;;;;;8.43;8.13;;;;;;;1.74;100.00;91908.47;5068919;28;20219;-74
2023/03/16 01:01:45;;;;;;;8.30;7.93;;;;;;;1.66;100.00;91907.09;5069834;28;20261;-74
2023/03/16 01:04:11;;;;;;;8.07;7.77;;;;;;;1.71;100.00;91903.81;5069591;28;20181;-73
2023/03/16 01:06:37;;;;;;;8.87;8.57;;;;;;;1.83;100.00;91914.72;5069557;28;20177;-74
2023/03/16 01:09:04;;;;;;;7.53;7.33;;;;;;;1.86;100.00;91911.66;5069220;28;20242;-74
2023/03/16 01:11:32;;;;;;;8.10;7.80;;;;;;;1.79;100.00;91905.94;5068885;28;20229;-74
2023/03/16 01:13:58;;;;;;;7.87;7.67;;;;;;;1.82;100.00;91900.31;5069165;28;20233;-74
2023/03/16 01:16:24;;;;;;;8.43;8.13;;;;;;;1.78;100.00;91907.72;5068576;28;20699;-75
2023/03/16 01:18:51;;;;;;;8.63;8.30;;;;;;;1.67;100.00;91890.66;5069512;28;20213;-75
2023/03/16 01:21:16;;;;;;;8.60;8.07;;;;;;;1.60;100.00;91910.66;5067969;28;20278;-75
2023/03/16 01:23:43;;;;;;;9.03;8.67;;;;;;;1.75;100.00;91910.00;5068954;28;20186;-75
2023/03/16 01:26:09;;;;;;;8.17;7.87;;;;;;;1.76;100.00;91907.19;5069042;28;20217;-74
2023/03/16 01:28:35;;;;;;;8.17;7.87;;;;;;;1.77;100.00;91908.75;5069127;28;20922;-74
2023/03/16 01:31:06;;;;;;;8.63;8.33;;;;;;;1.57;100.00;91909.31;5101391;28;20236;-74
2023/03/16 01:33:32;;;;;;;8.03;7.73;;;;;;;1.58;100.00;91902.38;5069249;28;20208;-75
2023/03/16 01:36:06;;;;;;;8.50;8.20;;;;;;;1.66;100.00;91912.25;5068520;28;20225;-74
2023/03/16 01:38:32;;;;;;;9.00;8.70;;;;;;;1.65;100.00;91906.31;5068843;28;20242;-74
2023/03/16 01:40:58;;;;;;;7.43;7.13;;;;;;;1.38;100.00;91900.38;5067870;28;20872;-74
2023/03/16 01:43:28;;;;;;;8.60;8.30;;;;;;;1.36;100.00;91917.06;5067638;28;20192;-74
2023/03/16 01:46:05;;;;;;;8.67;8.27;;;;;;;1.45;100.00;91916.41;5068345;28;20774;-75
2023/03/16 01:48:49;;;;;;;9.03;8.73;;;;;;;1.42;100.00;91916.88;5069198;28;20264;-74
2023/03/16 01:51:30;;;;;;;8.03;7.73;;;;;;;1.27;100.00;91914.13;5068601;28;20229;-75
2023/03/16 01:54:00;;;;;;;7.93;7.60;;;;;;;1.32;100.00;91906.47;5067774;28;20204;-74
2023/03/16 01:56:33;;;;;;;8.10;7.80;;;;;;;1.39;100.00;91917.34;5067395;28;20225;-74
2023/03/16 01:59:02;;;;;;;8.10;7.80;;;;;;;1.15;100.00;91903.19;5068474;28;20189;-74
2023/03/16 02:01:28;;;;;;;7.13;6.93;;;;;;;1.25;100.00;91930.81;5067744;28;20224;-77
2023/03/16 02:04:04;;;;;;;8.83;8.53;;;;;;;1.34;100.00;91930.16;5068806;28;20189;-72
2023/03/16 02:06:31;;;;;;;8.60;8.30;;;;;;;1.33;100.00;91938.88;5068225;28;20225;-74
2023/03/16 02:08:57;;;;;;;8.67;8.37;;;;;;;1.38;100.00;91927.88;5068527;28;20189;-74
2023/03/16 02:11:23;;;;;;;8.10;7.80;;;;;;;1.40;100.00;91954.91;5067597;28;20479;-75
2023/03/16 02:13:49;;;;;;;8.87;8.57;;;;;;;1.31;100.00;91942.69;5068517;28;20201;-75
2023/03/16 02:16:18;;;;;;;7.50;7.30;;;;;;;1.21;100.00;91909.19;5068364;28;20312;-75
2023/03/16 02:18:49;;;;;;;8.47;8.17;;;;;;;1.65;100.00;91954.41;5067858;28;20181;-75
2023/03/16 02:21:37;;;;;;;8.43;8.13;;;;;;;1.55;100.00;91962.81;5068537;28;20217;-76
2023/03/16 02:24:03;;;;;;;7.90;7.70;;;;;;;1.25;100.00;91936.72;5067463;28;20283;-75
2023/03/16 02:26:33;;;;;;;7.87;7.63;;;;;;;1.30;100.00;91966.84;5067113;28;20241;-75
2023/03/16 02:29:35;;;;;;;8.07;7.87;;;;;;;1.44;100.00;91965.50;5068214;28;20189;-75
2023/03/16 02:32:01;;;;;;;8.13;7.93;;;;;;;1.31;100.00;91966.63;5067074;28;20201;-74
2023/03/16 02:34:27;;;;;;;7.87;7.60;;;;;;;1.28;100.00;91941.41;5068112;28;20254;-75
2023/03/16 02:36:54;;;;;;;8.40;8.10;;;;;;;1.51;100.00;91982.28;5068635;28;20205;-75
2023/03/16 02:39:19;;;;;;;8.20;8.00;;;;;;;1.16;100.00;91953.59;5068476;28;20210;-75
2023/03/16 02:41:46;;;;;;;7.93;7.73;;;;;;;1.39;100.00;91973.94;5068532;28;20190;-71
2023/03/16 02:44:16;;;;;;;8.43;8.00;;;;;;;1.32;100.00;91965.59;5068209;28;20225;-71
2023/03/16 02:46:42;;;;;;;9.50;9.20;;;;;;;1.47;100.00;91973.50;5068221;28;20249;-70
2023/03/16 02:49:33;;;;;;;7.87;7.67;;;;;;;1.44;100.00;91971.41;5071860;28;20249;-68
2023/03/16 02:51:58;;;;;;;8.43;8.13;;;;;;;1.27;100.00;91962.97;5071920;28;20235;-70
2023/03/16 02:54:24;;;;;;;8.60;8.27;;;;;;;1.32;100.00;91978.44;5071877;28;20205;-71
2023/03/16 02:56:50;;;;;;;8.87;8.57;;;;;;;1.26;100.00;91986.34;5071923;28;20219;-70
2023/03/16 02:59:16;;;;;;;7.27;7.07;;;;;;;1.32;100.00;91975.88;5070564;28;20425;-71
2023/03/16 03:01:41;;;;;;;8.87;8.57;;;;;;;1.30;100.00;91975.34;5072297;28;20186;-71
2023/03/16 03:04:07;;;;;;;8.07;7.77;;;;;;;1.31;100.00;91979.47;5072180;28;20246;-71
2023/03/16 03:06:33;;;;;;;8.33;8.13;;;;;;;1.32;100.00;91970.72;5072069;28;20233;-70
2023/03/16 03:09:00;;;;;;;8.13;7.93;;;;;;;1.16;100.00;91981.84;5072047;28;20280;-70
2023/03/16 03:11:26;;;;;;;8.07;7.87;;;;;;;1.13;100.00;91992.63;5072021;28;20221;-71
2023/03/16 03:13:52;;;;;;;9.43;9.07;;;;;;;1.04;100.00;91975.25;5071088;28;20938;-70
2023/03/16 03:16:18;;;;;;;8.73;8.43;;;;;;;1.13;100.00;91987.47;5071637;28;20221;-71
2023/03/16 03:18:43;;;;;;;8.07;7.87;;;;;;;1.13;100.00;92007.25;5071847;28;20204;-70
2023/03/16 03:21:09;;;;;;;7.87;7.67;;;;;;;1.18;100.00;92008.09;5103897;28;20232;-70
2023/03/16 03:23:34;;;;;;;8.13;7.93;;;;;;;1.12;100.00;91998.75;5071923;28;20220;-70
2023/03/16 03:26:01;;;;;;;8.30;8.10;;;;;;;1.14;100.00;92001.88;5104094;28;20247;-71
2023/03/16 03:28:27;;;;;;;8.27;7.97;;;;;;;1.13;100.00;92005.47;5071821;28;20177;-71
2023/03/16 03:30:53;;;;;;;8.93;8.63;;;;;;;1.01;100.00;92001.44;5070035;28;20221;-71
2023/03/16 03:33:18;;;;;;;8.20;8.00;;;;;;;0.95;100.00;91994.66;5070979;28;20193;-71
2023/03/16 03:35:43;;;;;;;8.50;8.20;;;;;;;1.04;100.00;92006.84;5069887;28;20244;-70
2023/03/16 03:38:10;;;;;;;8.17;7.87;;;;;;;1.12;100.00;92014.16;5071603;28;20603;-72
2023/03/16 03:40:36;;;;;;;8.50;8.20;;;;;;;1.05;100.00;92008.44;5071032;28;20245;-71
2023/03/16 03:43:02;;;;;;;8.57;8.13;;;;;;;1.04;100.00;92011.25;5071470;28;20876;-71
2023/03/16 03:45:27;;;;;;;7.93;7.63;;;;;;;0.98;100.00;92012.19;5070606;28;20233;-71
2023/03/16 03:47:54;;;;;;;7.20;7.00;;;;;;;1.12;100.00;92019.31;5070814;28;20217;-71
2023/03/16 03:50:21;;;;;;;8.40;8.10;;;;;;;1.04;100.00;92018.94;5070856;28;20233;-71
2023/03/16 03:52:46;;;;;;;8.07;7.87;;;;;;;1.14;100.00;92040.41;5071143;28;20204;-72
2023/03/16 03:55:12;;;;;;;7.50;7.30;;;;;;;0.99;100.00;92019.66;5070516;28;20237;-71
2023/03/16 03:57:37;;;;;;;8.63;8.33;;;;;;;1.11;100.00;92051.16;5070433;28;20212;-71
2023/03/16 04:00:09;;;;;;;8.17;7.87;;;;;;;1.15;100.00;92044.53;5070434;28;20256;-70
2023/03/16 04:02:35;;;;;;;8.20;7.90;;;;;;;1.05;100.00;92049.53;5069688;28;20188;-71
2023/03/16 04:05:00;;;;;;;8.23;7.97;;;;;;;1.02;100.00;92057.72;5071018;28;20229;-71
2023/03/16 04:07:26;;;;;;;8.13;7.83;;;;;;;0.99;100.00;92049.69;5070700;28;20186;-71
2023/03/16 04:09:51;;;;;;;8.83;8.43;;;;;;;1.10;100.00;92059.13;5070478;28;20233;-71
2023/03/16 04:12:17;;;;;;;7.57;7.37;;;;;;;1.09;100.00;92055.75;5070602;28;20197;-71
2023/03/16 04:14:42;;;;;;;8.93;8.27;;;;;;;1.07;100.00;92052.66;5070294;28;20233;-71
2023/03/16 04:17:07;;;;;;;8.10;7.80;;;;;;;1.17;100.00;92052.00;5070738;28;20192;-71
2023/03/16 04:19:33;;;;;;;8.33;8.07;;;;;;;1.12;100.00;92050.16;5070204;28;20225;-71
2023/03/16 04:21:58;;;;;;;7.67;7.47;;;;;;;1.04;100.00;92060.81;5102752;28;20740;-71
2023/03/16 04:24:23;;;;;;;8.17;7.93;;;;;;;1.12;100.00;92068.13;5069532;28;20181;-71
2023/03/16 04:26:49;;;;;;;7.00;6.80;;;;;;;1.10;100.00;92054.78;5070674;28;20208;-71
2023/03/16 04:29:16;;;;;;;7.73;7.53;;;;;;;1.04;100.00;92058.25;5069642;28;20244;-72
2023/03/16 04:31:43;;;;;;;8.13;7.73;;;;;;;1.02;100.00;92069.78;5070044;28;20189;-72
2023/03/16 04:34:10;;;;;;;7.90;7.70;;;;;;;1.12;100.00;92080.22;5069336;28;20216;-71
2023/03/16 04:36:36;;;;;;;7.93;7.63;;;;;;;1.20;100.00;92082.38;5070318;28;20210;-72
2023/03/16 04:39:01;;;;;;;7.77;7.57;;;;;;;0.97;100.00;92077.41;5070814;28;20185;-71
2023/03/16 04:41:27;;;;;;;8.17;7.93;;;;;;;1.08;100.00;92074.78;5069106;28;20251;-72
2023/03/16 04:43:52;;;;;;;8.77;8.47;;;;;;;1.21;100.00;92068.53;5070021;28;20252;-73
2023/03/16 04:46:17;;;;;;;8.83;8.53;;;;;;;1.23;100.00;92089.66;5067103;28;20241;-69
2023/03/16 04:48:43;;;;;;;8.83;8.43;;;;;;;1.24;100.00;92094.56;5066474;28;20220;-69
2023/03/16 04:51:08;;;;;;;7.83;7.53;;;;;;;1.33;98.68;92102.63;5065834;28;20232;-70
2023/03/16 04:53:34;;;;;;;8.17;7.93;;;;;;;1.10;98.35;92113.88;5068877;28;20272;-66
2023/03/16 04:56:00;;;;;;;8.37;8.07;;;;;;;0.95;98.92;92111.06;5066309;28;20284;-70
2023/03/16 04:58:25;;;;;;;9.00;8.60;;;;;;;0.97;99.12;92109.03;5069064;28;20193;-69
2023/03/16 05:00:52;;;;;;;8.63;8.33;;;;;;;1.20;100.00;92114.00;5067882;28;20237;-71
2023/03/16 05:03:17;;;;;;;8.53;8.23;;;;;;;1.23;100.00;92123.81;5067553;28;20193;-68
2023/03/16 05:05:44;;;;;;;7.67;7.47;;;;;;;1.27;100.00;92113.88;5068819;28;20256;-69
2023/03/16 05:08:09;;;;;;;8.60;8.33;;;;;;;1.30;100.00;92124.47;5068120;28;20193;-67
2023/03/16 05:10:35;;;;;;;8.70;8.40;;;;;;;1.11;99.50;92125.69;5066875;28;20228;-66
2023/03/16 05:13:01;;;;;;;8.77;8.47;;;;;;;1.11;99.47;92125.69;5067247;28;20169;-70
2023/03/16 05:15:26;;;;;;;8.47;8.07;;;;;;;1.17;97.92;92106.00;5068415;28;20236;-71
2023/03/16 05:17:54;;;;;;;8.50;8.20;;;;;;;1.41;97.58;92121.03;5068909;28;20173;-71
2023/03/16 05:20:21;;;;;;;7.73;7.43;;;;;;;1.41;97.01;92130.53;5068401;28;20221;-68
2023/03/16 05:22:49;;;;;;;8.10;7.70;;;;;;;1.37;97.87;92132.78;5068092;28;20185;-68
2023/03/16 05:25:16;;;;;;;8.27;7.97;;;;;;;1.28;95.87;92123.13;5068133;28;20228;-70
2023/03/16 05:27:43;;;;;;;8.50;8.20;;;;;;;1.20;98.00;92134.59;5069115;28;20193;-69
2023/03/16 05:30:10;;;;;;;9.60;9.00;;;;;;;1.26;97.90;92138.78;5068641;28;20225;-69
2023/03/16 05:32:36;;;;;;;8.47;7.97;;;;;;;1.15;98.07;92139.63;5067833;28;20249;-68
2023/03/16 05:35:02;;;;;;;8.57;8.17;;;;;;;1.05;98.65;92147.19;5068506;28;20229;-68
2023/03/16 05:37:27;;;;;;;8.37;8.10;;;;;;;1.13;100.00;92146.03;5068285;28;20274;-69
2023/03/16 05:39:53;;;;;;;9.67;9.27;;;;;;;1.33;100.00;92149.72;5067822;28;20218;-69
2023/03/16 05:42:18;;;;;;;8.90;8.60;;;;;;;1.19;100.00;92145.88;5068507;28;20192;-69
2023/03/16 05:44:44;;;;;;;8.70;8.40;;;;;;;1.18;100.00;92157.16;5067663;28;20217;-70
2023/03/16 05:47:10;;;;;;;8.07;7.80;;;;;;;0.95;100.00;92139.31;5066733;28;20189;-68
2023/03/16 05:49:35;;;;;;;8.63;8.37;;;;;;;0.89;100.00;92155.66;5064467;28;20228;-67
2023/03/16 05:52:01;;;;;;;9.20;8.80;;;;;;;1.02;100.00;92160.50;5066578;28;20181;-69
2023/03/16 05:54:26;;;;;;;8.43;8.13;;;;;;;1.07;99.34;92168.31;5066679;28;20300;-68
2023/03/16 05:56:52;;;;;;;7.77;7.57;;;;;;;0.93;100.00;92156.78;5066774;28;20228;-68
2023/03/16 05:59:17;;;;;;;8.47;8.23;;;;;;;1.02;100.00;92157.16;5067043;28;20227;-68
2023/03/16 06:01:42;;;;;;;8.07;7.77;;;;;;;1.11;100.00;92174.53;5066261;28;20177;-68
2023/03/16 06:04:08;;;;;;;8.80;8.50;;;;;;;1.01;100.00;92166.66;5066750;28;20245;-69
2023/03/16 06:06:33;;;;;;;8.17;7.87;;;;;;;1.19;100.00;92181.88;5066488;28;20240;-68
2023/03/16 06:09:00;;;;;;;9.27;8.87;;;;;;;0.94;100.00;92190.94;5065519;28;20190;-69
2023/03/16 06:11:25;;;;;;;8.20;7.90;;;;;;;1.00;100.00;92180.50;5066891;28;20221;-69
2023/03/16 06:13:50;;;;;;;9.50;9.20;;;;;;;1.05;100.00;92205.50;5067870;28;20219;-69
2023/03/16 06:16:16;;;;;;;8.97;8.67;;;;;;;1.11;100.00;92192.53;5067340;28;20232;-69
2023/03/16 06:18:42;;;;;;;8.47;8.27;;;;;;;1.21;100.00;92192.72;5068389;28;20189;-69
2023/03/16 06:21:07;;;;;;;9.67;9.33;;;;;;;1.10;100.00;92200.47;5068071;28;20255;-69
2023/03/16 06:23:33;;;;;;;8.83;8.57;;;;;;;1.12;100.00;92188.94;5069255;28;20307;-69
2023/03/16 06:25:59;;;;;;;8.80;8.50;;;;;;;1.32;100.00;92206.50;5070128;28;20255;-69
2023/03/16 06:28:25;;;;;;;9.13;8.83;;;;;;;1.03;100.00;92199.81;5069773;28;20209;-67
2023/03/16 06:30:55;;;;;;;8.07;7.83;;;;;;;0.93;99.49;92192.75;5070670;28;20238;-68
2023/03/16 06:33:20;;;;;;;8.73;8.43;;;;;;;1.08;100.00;92220.47;5067774;28;20188;-69
2023/03/16 06:35:47;;;;;;;8.83;8.43;;;;;;;1.16;99.85;92226.03;5068439;28;20225;-69
2023/03/16 06:38:13;;;;;;;11.03;10.60;;;;;;;1.26;100.00;92226.19;5071098;28;20209;-68
2023/03/16 06:40:38;;;;;;;8.47;8.17;;;;;;;1.12;99.84;92232.63;5070294;28;20217;-69
2023/03/16 06:43:05;;;;;;;9.33;8.93;;;;;;;1.12;100.00;92234.44;5068893;28;20227;-69
2023/03/16 06:45:30;;;;;;;8.73;8.43;;;;;;;1.15;99.76;92250.16;5068251;28;20239;-68
2023/03/16 06:47:56;;;;;;;8.50;8.07;;;;;;;1.37;100.00;92240.78;5065394;28;20289;-67
2023/03/16 06:50:21;;;;;;;9.93;9.60;;;;;;;1.58;99.52;92242.69;5069248;28;20240;-67
2023/03/16 06:52:46;;;;;;;8.80;8.50;;;;;;;1.62;97.22;92255.84;5070129;28;20217;-66
2023/03/16 06:55:13;;;;;;;8.60;8.30;;;;;;;1.31;96.27;92249.41;5070499;28;20229;-66
2023/03/16 06:57:39;;;;;;;9.87;9.47;;;;;;;1.23;95.93;92249.78;5069466;28;20197;-66
2023/03/16 07:00:06;;;;;;;9.07;8.67;;;;;;;1.35;96.69;92255.66;5070094;28;20221;-66
2023/03/16 07:02:34;;;;;;;8.97;8.57;;;;;;;1.14;96.41;92240.91;5071492;28;20239;-66
2023/03/16 07:05:00;;;;;;;8.70;8.40;;;;;;;1.36;97.42;92266.72;5103063;28;20225;-64
2023/03/16 07:07:26;;;;;;;9.70;9.20;;;;;;;1.49;96.55;92267.19;5071192;28;20193;-67
2023/03/16 07:09:51;;;;;;;9.80;9.40;;;;;;;1.48;94.85;92270.78;5070938;28;20267;-66
2023/03/16 07:12:17;;;;;;;9.23;8.83;;;;;;;1.27;93.62;92261.19;5070574;28;20194;-66
2023/03/16 07:14:42;;;;;;;9.67;9.27;;;;;;;1.58;93.12;92281.25;5071202;28;20288;-66
2023/03/16 07:17:07;;;;;;;9.77;9.37;;;;;;;1.56;92.43;92279.91;5070334;28;20264;-67
2023/03/16 07:19:33;;;;;;;10.97;10.17;;;;;;;1.54;93.88;92290.44;5070851;28;20248;-71
2023/03/16 07:21:58;;;;;;;9.47;8.87;;;;;;;1.71;93.48;92292.25;5071420;28;20212;-70
2023/03/16 07:24:23;;;;;;;9.13;8.60;;;;;;;1.72;94.03;92297.19;5070903;28;20205;-71
2023/03/16 07:26:49;;;;;;;9.10;8.70;;;;;;;1.60;94.53;92292.09;5069712;28;20170;-71
2023/03/16 07:29:15;;;;;;;9.70;9.27;;;;;;;1.91;92.94;92292.59;5070603;28;20188;-70
2023/03/16 07:31:41;;;;;;;9.67;9.17;;;;;;;2.01;91.91;92285.03;5069644;28;20188;-70
2023/03/16 07:34:07;;;;;;;9.07;8.37;;;;;;;2.30;93.50;92294.19;5069450;28;20236;-70
2023/03/16 07:36:33;;;;;;;9.00;8.60;;;;;;;1.80;92.53;92301.16;5070757;28;20220;-70
2023/03/16 07:38:58;;;;;;;8.03;7.73;;;;;;;1.85;92.84;92291.72;5070932;28;20193;-70
2023/03/16 07:41:24;;;;;;;8.17;7.87;;;;;;;2.18;95.90;92290.94;5070238;28;20233;-69
2023/03/16 07:43:50;;;;;;;7.90;7.60;;;;;;;2.19;91.63;92303.59;5069432;28;20201;-70
2023/03/16 07:46:15;;;;;;;9.20;8.80;;;;;;;2.35;90.47;92310.50;5070138;28;20289;-70
2023/03/16 07:48:42;;;;;;;9.20;8.60;;;;;;;2.34;90.61;92301.22;5070160;28;20177;-70
2023/03/16 07:51:10;;;;;;;8.77;8.37;;;;;;;1.77;90.75;92185.84;5070752;28;20260;-70
2023/03/16 07:53:35;;;;;;;9.13;8.73;;;;;;;2.33;88.80;92312.53;5070766;28;21432;-69
2023/03/16 07:56:01;;;;;;;8.63;8.23;;;;;;;1.93;89.04;92319.63;5070360;28;20221;-70
2023/03/16 07:58:26;;;;;;;8.90;8.50;;;;;;;2.39;89.02;92321.09;5069964;28;20216;-70
2023/03/16 08:00:58;;;;;;;8.80;8.27;;;;;;;2.89;89.33;92306.34;5070501;28;20241;-71
2023/03/16 08:03:25;;;;;;;8.80;8.33;;;;;;;2.78;86.14;92327.84;5070072;28;20879;-70
2023/03/16 08:05:52;;;;;;;8.37;8.07;;;;;;;2.64;86.26;92306.00;5070727;28;20225;-70
2023/03/16 08:08:18;;;;;;;8.73;8.43;;;;;;;2.73;86.11;92325.19;5070470;28;20181;-71
2023/03/16 08:10:46;;;;;;;8.50;8.20;;;;;;;2.79;87.30;92329.38;5069098;28;20221;-71
2023/03/16 08:13:12;;;;;;;8.20;7.90;;;;;;;2.65;86.50;92326.38;5069081;28;20189;-70
2023/03/16 08:15:38;;;;;;;8.30;8.00;;;;;;;2.52;86.90;92328.53;5069420;28;20225;-71
2023/03/16 08:18:05;;;;;;;8.80;8.50;;;;;;;2.85;87.07;92328.44;5069480;28;20259;-71
2023/03/16 08:20:31;;;;;;;9.23;8.93;;;;;;;2.66;85.93;92333.09;5065103;28;20237;-72
2023/03/16 08:22:57;;;;;;;9.10;8.70;;;;;;;2.68;86.64;92343.16;5069451;28;20201;-70
2023/03/16 08:25:23;;;;;;;9.00;8.70;;;;;;;2.63;87.19;92340.53;5068179;28;20224;-71
2023/03/16 08:27:49;;;;;;;8.80;8.40;;;;;;;2.47;88.11;92333.59;5069024;28;20205;-71
2023/03/16 08:30:15;;;;;;;9.00;8.70;;;;;;;2.30;88.90;92331.03;5068189;28;20259;-71
2023/03/16 08:32:41;;;;;;;8.27;7.87;;;;;;;2.79;88.35;92352.59;5068354;28;20174;-71
2023/03/16 08:35:09;;;;;;;7.97;7.77;;;;;;;2.73;88.22;92350.97;5068304;28;20225;-71
2023/03/16 08:37:35;;;;;;;9.03;8.73;;;;;;;2.70;88.17;92346.28;5070097;28;20188;-71
2023/03/16 08:40:01;;;;;;;8.57;8.13;;;;;;;2.85;87.41;92331.81;5068373;28;20284;-71
2023/03/16 08:42:30;;;;;;;9.50;9.10;;;;;;;2.76;88.21;92345.31;5068304;28;20185;-69
2023/03/16 08:44:56;;;;;;;9.90;9.50;;;;;;;5.29;91.70;92341.13;5067954;28;20319;-71
2023/03/16 08:47:21;;;;;;;7.90;7.70;;;;;;;3.95;79.62;92355.47;5070508;28;20207;-72
2023/03/16 08:49:48;;;;;;;8.67;8.37;;;;;;;3.25;82.61;92354.72;5067902;28;20237;-70
2023/03/16 08:52:14;;;;;;;8.43;8.13;;;;;;;3.51;83.73;92363.53;5067769;28;20184;-69
2023/03/16 08:54:40;;;;;;;8.33;8.03;;;;;;;3.78;83.42;92356.59;5067111;28;20240;-70
2023/03/16 08:57:06;;;;;;;9.27;8.87;;;;;;;3.26;82.57;92362.22;5067587;28;20181;-70
2023/03/16 08:59:32;;;;;;;9.07;8.73;;;;;;;3.50;83.55;92360.19;5068100;28;20233;-70
2023/03/16 09:01:57;;;;;;;9.00;8.60;;;;;;;3.28;83.46;92369.72;5067689;28;20212;-70
2023/03/16 09:04:23;;;;;;;9.13;8.73;;;;;;;3.59;83.01;92373.41;5067858;28;20213;-70
2023/03/16 09:06:50;;;;;;;8.37;8.07;;;;;;;3.67;81.89;92368.63;5066947;28;20253;-70
2023/03/16 09:09:16;;;;;;;9.07;8.77;;;;;;;3.40;82.45;92370.38;5068930;28;20272;-69
2023/03/16 09:11:43;;;;;;;9.80;9.37;;;;;;;3.67;82.61;92352.34;5067177;28;20184;-69
2023/03/16 09:14:10;;;;;;;9.37;8.87;;;;;;;3.62;85.14;92363.41;5082780;28;20221;-71
2023/03/16 09:16:37;;;;;;;9.13;8.73;;;;;;;3.07;82.26;92375.63;5067101;28;20205;-69
2023/03/16 09:19:02;;;;;;;8.47;8.17;;;;;;;3.00;82.64;92375.03;5067136;28;20177;-70
2023/03/16 09:21:28;;;;;;;9.50;9.10;;;;;;;2.90;81.77;92383.44;5066344;28;20218;-70
2023/03/16 09:23:55;;;;;;;8.83;8.43;;;;;;;3.04;83.91;92389.00;5067809;28;20208;-70
2023/03/16 09:26:21;;;;;;;9.10;8.47;;;;;;;3.22;85.54;92386.16;5066066;28;20221;-70
2023/03/16 09:28:46;;;;;;;8.77;8.47;;;;;;;2.78;84.12;92395.63;5067710;28;20204;-70
2023/03/16 09:31:17;;;;;;;9.77;9.37;;;;;;;2.87;86.49;92388.25;5067279;28;20221;-71
2023/03/16 09:33:43;;;;;;;9.13;8.83;;;;;;;2.88;86.54;92389.84;5066872;28;20220;-72
2023/03/16 09:36:10;;;;;;;10.20;9.57;;;;;;;2.96;86.30;92392.00;5068156;28;20229;-71
2023/03/16 09:38:37;;;;;;;9.60;9.20;;;;;;;2.86;86.28;92389.28;5068071;28;20754;-70
2023/03/16 09:41:28;;;;;;;8.90;8.60;;;;;;;2.97;85.37;92403.88;5067396;28;20252;-70
2023/03/16 09:44:21;;;;;;;8.43;8.13;;;;;;;2.88;87.06;92395.75;5065805;28;20193;-71
2023/03/16 09:46:49;;;;;;;10.10;9.70;;;;;;;3.11;86.90;92394.78;5067709;28;20201;-74
2023/03/16 09:49:18;;;;;;;8.93;8.53;;;;;;;2.88;87.74;92398.34;5067275;28;20218;-74
2023/03/16 09:51:55;;;;;;;9.47;9.17;;;;;;;2.80;88.01;92377.34;5068071;28;20250;-73
2023/03/16 09:54:31;;;;;;;8.53;8.23;;;;;;;2.71;88.38;92389.84;5067453;28;20221;-74
2023/03/16 09:56:59;;;;;;;8.33;8.07;;;;;;;2.39;90.48;92370.03;5067803;28;20200;-75
2023/03/16 09:59:26;;;;;;;8.70;8.30;;;;;;;2.51;90.99;92386.19;5068021;28;20197;-74
2023/03/16 10:02:30;;;;;;;9.87;9.47;;;;;;;2.42;94.71;92388.41;5067968;28;20257;-74
2023/03/16 10:05:09;;;;;;;9.40;9.00;;;;;;;2.39;95.42;92380.34;5067998;28;20247;-74
2023/03/16 10:07:44;;;;;;;10.63;10.23;;;;;;;2.52;93.76;92380.03;5067454;28;20177;-74
2023/03/16 10:10:09;;;;;;;10.33;9.77;;;;;;;2.68;95.39;92397.25;5067931;28;20749;-74
2023/03/16 10:12:40;;;;;;;10.03;9.43;;;;;;;2.55;94.25;92389.88;5067540;28;20181;-75
2023/03/16 10:15:14;;;;;;;9.90;9.50;;;;;;;2.46;92.13;92388.72;5067045;28;20255;-75
2023/03/16 10:17:45;;;;;;;9.23;8.83;;;;;;;2.59;89.74;92381.44;5067217;28;20185;-75
2023/03/16 10:20:17;;;;;;;9.27;8.87;;;;;;;2.92;87.23;92406.38;5067527;28;20236;-74
2023/03/16 10:22:45;;;;;;;8.77;8.37;;;;;;;2.89;86.33;92391.41;5068067;28;20187;-74
2023/03/16 10:25:22;;;;;;;9.00;8.70;;;;;;;2.86;86.86;92402.94;5068679;28;20739;-75
2023/03/16 10:27:49;;;;;;;8.83;8.53;;;;;;;2.94;88.88;92404.38;5068829;28;20251;-74
2023/03/16 10:30:18;;;;;;;10.03;9.60;;;;;;;2.92;87.46;92403.81;5066738;28;20263;-74
2023/03/16 10:32:45;;;;;;;8.73;8.33;;;;;;;2.72;87.52;92382.91;5067059;28;20224;-75
2023/03/16 10:35:37;;;;;;;10.23;9.73;;;;;;;2.82;86.88;92401.06;5067715;28;20225;-75
2023/03/16 10:38:03;;;;;;;9.73;9.23;;;;;;;2.80;86.82;92378.13;5069046;28;20241;-74
2023/03/16 10:40:37;;;;;;;9.70;9.23;;;;;;;3.06;87.17;92402.47;5068277;28;20240;-74
2023/03/16 10:43:12;;;;;;;9.83;9.33;;;;;;;3.16;86.31;92393.03;5066913;28;20181;-74
2023/03/16 10:45:38;;;;;;;9.77;9.37;;;;;;;3.13;86.05;92393.53;5067439;28;20273;-74
2023/03/16 10:48:11;;;;;;;9.77;9.27;;;;;;;2.78;88.50;92410.31;5068377;28;20182;-74
2023/03/16 10:50:36;;;;;;;10.37;9.87;;;;;;;2.82;88.38;92395.94;5067433;28;20302;-74
2023/03/16 10:53:02;;;;;;;10.43;9.97;;;;;;;2.82;87.07;92404.44;5067855;28;20189;-74
2023/03/16 10:55:32;;;;;;;9.23;8.73;;;;;;;2.66;87.82;92379.47;5068070;28;20237;-74
2023/03/16 10:57:58;;;;;;;9.97;9.53;;;;;;;2.86;88.79;92397.03;5068092;28;20185;-74
2023/03/16 11:00:29;;;;;;;10.30;9.83;;;;;;;2.89;87.96;92409.44;5067661;28;20248;-75
2023/03/16 11:02:58;;;;;;;10.10;9.60;;;;;;;2.99;87.84;92417.28;5068078;28;20193;-74
2023/03/16 11:05:31;;;;;;;10.10;9.60;;;;;;;3.11;88.10;92416.19;5067387;28;20272;-74
2023/03/16 11:08:22;;;;;;;11.03;10.33;;;;;;;2.62;88.67;92403.38;5067770;28;20226;-74
2023/03/16 11:10:58;;;;;;;10.50;10.00;;;;;;;2.70;89.87;92418.44;5071057;28;20255;-74
2023/03/16 11:13:31;;;;;;;10.33;9.70;;;;;;;2.81;88.95;92415.78;5070705;28;20193;-74
2023/03/16 11:16:23;;;;;;;11.57;10.87;;;;;;;2.90;90.00;92414.34;5071568;28;20226;-74
2023/03/16 11:19:08;;;;;;;10.90;10.30;;;;;;;3.16;88.11;92410.31;5060979;28;20209;-74
2023/03/16 11:21:43;;;;;;;10.33;9.83;;;;;;;2.97;88.50;92403.88;5071311;28;20201;-74
2023/03/16 11:24:18;;;;;;;10.37;9.87;;;;;;;3.09;89.25;92413.09;5071447;28;20189;-74
2023/03/16 11:26:52;;;;;;;10.47;9.97;;;;;;;2.84;86.94;92404.22;5070981;28;20249;-74
2023/03/16 11:29:23;;;;;;;11.30;10.80;;;;;;;3.05;88.28;92411.22;5070782;28;20192;-74
2023/03/16 11:31:56;;;;;;;8.80;8.40;;;;;;;3.21;87.33;92410.38;5070334;28;20178;-74
2023/03/16 11:34:27;;;;;;;9.67;9.27;;;;;;;3.10;88.59;92412.06;5070656;28;20243;-74
2023/03/16 11:36:56;;;;;;;10.13;9.63;;;;;;;3.20;88.29;92413.97;5071424;28;20185;-75
2023/03/16 11:39:40;;;;;;;11.93;11.33;;;;;;;3.09;89.08;92409.72;5070614;28;20170;-73